Essen Mülheim Airport

EDLE · Nordrhein-Westfalen, Deutschland

METAR-Geschichte EDLE · Flughafen Essen/Mülheim

Unten siehst du die METARs der letzten paar Tage. Wähle ein Jahr, um ältere METARs ab dem Jahr 2007 zu durchsuchen.

2. Dezember 2022

Uhrzeit Code Wetter Temp. Sichtweite Wolkendecke Wind METAR/SPECI
02:50
M
3 °C 9 km 1.200 ft 060° 060° 7 kt METAR EDDL 020150Z AUTO 06007KT 030V090 9000 OVC012 03/01 Q1024 NOSIG
02:20
M
3 °C 7 km 1.100 ft 060° 060° 4 kt METAR EDDL 020120Z AUTO 06004KT 030V090 7000 OVC011 03/01 Q1024 NOSIG
01:50
M
3 °C 8 km 1.200 ft 050° 050° 5 kt METAR EDDL 020050Z AUTO 05005KT 8000 OVC012 03/01 Q1025 NOSIG
01:20
M
4 °C 9 km 1.300 ft 070° 070° 6 kt METAR EDDL 020020Z AUTO 07006KT 9000 OVC013 04/01 Q1025 NOSIG
00:50
M
4 °C 9 km 1.400 ft 050° 050° 4 kt METAR EDDL 012350Z AUTO 05004KT 020V080 9000 OVC014 04/01 Q1025 NOSIG
00:20
M
4 °C 9 km 1.400 ft 060° 060° 6 kt METAR EDDL 012320Z AUTO 06006KT 9000 OVC014 04/01 Q1025 TEMPO BKN015

1. Dezember 2022

Uhrzeit Code Wetter Temp. Sichtweite Wolkendecke Wind METAR/SPECI
23:50
M
4 °C 10 km+ 1.500 ft 050° 050° 7 kt METAR EDDL 012250Z AUTO 05007KT 9999 OVC015 04/01 Q1025 NOSIG
23:20
M
4 °C 10 km+ 1.600 ft 070° 070° 8 kt METAR EDDL 012220Z AUTO 07008KT 9999 OVC016 04/01 Q1026 NOSIG
22:50
M
4 °C 10 km+ 1.600 ft 050° 050° 9 kt METAR EDDL 012150Z AUTO 05009KT 9999 OVC016 04/01 Q1026 NOSIG
22:20
M
4 °C 10 km+ 1.600 ft 050° 050° 8 kt METAR EDDL 012120Z AUTO 05008KT 020V080 9999 OVC016 04/01 Q1026 NOSIG
21:50
M
4 °C 10 km+ 1.600 ft 050° 050° 8 kt METAR EDDL 012050Z AUTO 05008KT 9999 OVC016 04/01 Q1026 NOSIG
21:20
M
4 °C 7 km 1.400 ft 070° 070° 8 kt METAR EDDL 012020Z AUTO 07008KT 7000 OVC014 04/02 Q1026 TEMPO BKN020
20:50
M
5 °C 8 km 1.500 ft 040° 040° 7 kt METAR EDDL 011950Z AUTO 04007KT 8000 BKN015 OVC038 05/02 Q1026 TEMPO BKN012
20:20
V
5 °C 8 km 3.700 ft 030° 030° 6 kt METAR EDDL 011920Z AUTO 03006KT 8000 FEW017 OVC037 05/02 Q1026 NOSIG
19:50
V
5 °C 9 km 3.800 ft 030° 030° 7 kt METAR EDDL 011850Z AUTO 03007KT 9000 SCT018 OVC038 05/02 Q1026 NOSIG
19:20
M
5 °C 8 km 1.600 ft 020° 020° 6 kt METAR EDDL 011820Z AUTO 02006KT 8000 OVC016 05/03 Q1026 NOSIG
18:50
M
5 °C 8 km 1.800 ft 030° 030° 4 kt METAR EDDL 011750Z AUTO 03004KT 360V060 8000 OVC018 05/03 Q1026 NOSIG
18:20
M
6 °C 7 km 1.700 ft 030° 030° 4 kt METAR EDDL 011720Z AUTO 03004KT 7000 BKN017 06/03 Q1026 BECMG BKN014
17:50
M
6 °C 8 km 1.900 ft 030° 030° 4 kt METAR EDDL 011650Z AUTO 03004KT 8000 BKN019 OVC042 06/03 Q1026 NOSIG
17:20
V
6 °C 8 km 4.100 ft 030° 030° 7 kt METAR EDDL 011620Z AUTO 03007KT 8000 FEW021 OVC041 06/03 Q1026 NOSIG
16:50
V
6 °C 8 km 4.000 ft 030° 030° 7 kt METAR EDDL 011550Z AUTO 03007KT 8000 FEW018 OVC040 06/03 Q1026 NOSIG
16:20
V
6 °C 8 km 4.000 ft 030° 030° 8 kt METAR EDDL 011520Z AUTO 03008KT 8000 FEW019 OVC040 06/03 Q1026 NOSIG
15:50
V
6 °C 8 km 3.900 ft 020° 020° 5 kt METAR EDDL 011450Z AUTO 02005KT 340V050 8000 FEW021 OVC039 06/03 Q1026 NOSIG
15:20
V
6 °C 9 km 4.000 ft 020° 020° 7 kt METAR EDDL 011420Z AUTO 02007KT 9000 FEW019 OVC040 06/03 Q1026 NOSIG
14:50
V
7 °C 10 km+ 4.200 ft 040° 040° 7 kt METAR EDDL 011350Z AUTO 04007KT 9999 FEW021 OVC042 07/03 Q1026 NOSIG
14:20
M
6 °C 10 km+ 1.900 ft 030° 030° 8 kt METAR EDDL 011320Z AUTO 03008KT 9999 SCT015 BKN019 BKN043 06/03 Q1026 TEMPO BKN014
13:50
V
7 °C 10 km+ 4.400 ft 030° 030° 8 kt METAR EDDL 011250Z AUTO 03008KT 9999 SCT016 BKN044 07/04 Q1026 NOSIG
13:20
M
6 °C 10 km+ 1.900 ft 030° 030° 7 kt METAR EDDL 011220Z AUTO 03007KT 9999 FEW012 OVC019 06/04 Q1026 NOSIG
12:50
M
6 °C 10 km+ 1.500 ft 040° 040° 7 kt METAR EDDL 011150Z AUTO 04007KT 9999 SCT007 OVC015 06/04 Q1026 NOSIG
12:20
I
6 °C 7 km 600 ft 030° 030° 8 kt METAR EDDL 011120Z AUTO 03008KT 010V070 7000 BKN006 06/04 Q1026 NOSIG
11:50
I
6 °C 9 km 700 ft 040° 040° 6 kt METAR EDDL 011050Z AUTO 04006KT 360V060 9000 OVC007 06/04 Q1027 NOSIG
11:20
I
6 °C 9 km 800 ft 020° 020° 7 kt METAR EDDL 011020Z AUTO 02007KT 9000 OVC008 06/04 Q1027 BECMG BKN010
10:50
I
6 °C 8 km 800 ft 030° 030° 8 kt METAR EDDL 010950Z AUTO 03008KT 8000 OVC008 06/04 Q1027 BECMG BKN010
10:20
I
6 °C 9 km 900 ft 030° 030° 9 kt METAR EDDL 010920Z AUTO 03009KT 9000 OVC009 06/04 Q1027 TEMPO BKN010
09:50
I
6 °C 7 km 800 ft 020° 020° 5 kt METAR EDDL 010850Z AUTO 02005KT 350V050 7000 BKN008 OVC013 06/04 Q1027 TEMPO BKN010 OVC015
09:20
I
6 °C 6 km 800 ft 030° 030° 6 kt METAR EDDL 010820Z AUTO 03006KT 6000 BKN008 06/04 Q1027 NOSIG
08:50
I
6 °C 7 km 800 ft 010° 010° 6 kt METAR EDDL 010750Z AUTO 01006KT 7000 OVC008 06/04 Q1026 NOSIG
08:20
I
6 °C 9 km 900 ft 030° 030° 9 kt METAR EDDL 010720Z AUTO 03009KT 9000 OVC009 06/04 Q1026 BECMG BKN011
07:50
I
6 °C 7 km 800 ft 020° 020° 6 kt METAR EDDL 010650Z AUTO 02006KT 7000 BKN008 06/04 Q1026 TEMPO BKN010
07:20
I
6 °C 6 km 600 ft 360° 360° 7 kt METAR EDDL 010620Z AUTO 36007KT 6000 BKN006 06/05 Q1026 TEMPO 4000 BR BKN004
06:50
I
6 °C 7 km 700 ft 010° 010° 8 kt METAR EDDL 010550Z AUTO 01008KT 7000 OVC007 06/05 Q1026 NOSIG
06:20
I
6 °C 10 km+ 900 ft 020° 020° 6 kt METAR EDDL 010520Z AUTO 02006KT 360V060 9999 BKN009 OVC012 06/04 Q1026 TEMPO SCT009 BKN012
05:50
M
6 °C 10 km+ 1.100 ft 030° 030° 8 kt METAR EDDL 010450Z AUTO 03008KT 9999 OVC011 06/04 Q1026 TEMPO BKN009
05:20
I
6 °C 10 km+ 800 ft 010° 010° 6 kt METAR EDDL 010420Z AUTO 01006KT 9999 BKN008 OVC012 06/05 Q1026 TEMPO BKN012
04:50
I
6 °C 6 km 500 ft 020° 020° 8 kt METAR EDDL 010350Z AUTO 02008KT 6000 BKN005 06/05 Q1026 NOSIG
04:20
L
6 °C 5 km 400 ft 020° 020° 7 kt METAR EDDL 010320Z AUTO 02007KT 5000 BR OVC004 06/05 Q1026 TEMPO BKN006
03:50
L
6 °C 5 km 400 ft 020° 020° 8 kt METAR EDDL 010250Z AUTO 02008KT 5000 BR OVC004 06/05 Q1026 TEMPO 4000 BR
03:20
L
6 °C 5 km 400 ft 030° 030° 8 kt METAR EDDL 010220Z AUTO 03008KT 5000 BR OVC004 06/05 Q1026 TEMPO 4000 BR
02:50
L
6 °C 5 km 300 ft 020° 020° 5 kt METAR EDDL 010150Z AUTO 02005KT 5000 BR OVC003 06/05 Q1026 TEMPO 4000 BR
02:20
L
6 °C 6 km 400 ft 020° 020° 8 kt METAR EDDL 010120Z AUTO 02008KT 6000 OVC004 06/05 Q1026 TEMPO 4000 BR
01:50
I
6 °C 8 km 500 ft 020° 020° 6 kt METAR EDDL 010050Z AUTO 02006KT 8000 OVC005 06/05 Q1025 TEMPO 4500 BR BKN004
01:20
I
6 °C 10 km+ 600 ft 360° 360° 6 kt METAR EDDL 010020Z AUTO 36006KT 9999 OVC006 06/05 Q1025 NOSIG
00:50
I
6 °C 10 km+ 600 ft 020° 020° 5 kt METAR EDDL 302350Z AUTO 02005KT 9999 BKN006 06/05 Q1026 NOSIG
00:20
I
6 °C 10 km+ 600 ft 010° 010° 7 kt METAR EDDL 302320Z AUTO 01007KT 9999 OVC006 06/05 Q1026 NOSIG

30. November 2022

Uhrzeit Code Wetter Temp. Sichtweite Wolkendecke Wind METAR/SPECI
23:50
I
6 °C 10 km+ 600 ft 020° 020° 5 kt METAR EDDL 302250Z AUTO 02005KT 350V050 9999 OVC006 06/05 Q1025 NOSIG
23:20
I
6 °C 10 km+ 600 ft 010° 010° 6 kt METAR EDDL 302220Z AUTO 01006KT 340V040 9999 BKN006 06/05 Q1025 NOSIG
22:50
I
6 °C 10 km+ 500 ft 020° 020° 5 kt METAR EDDL 302150Z AUTO 02005KT 9999 OVC005 06/05 Q1026 TEMPO 4000 BR BKN004
22:20
I
6 °C 10 km+ 600 ft 030° 030° 6 kt METAR EDDL 302120Z AUTO 03006KT 9999 BKN006 06/05 Q1026 TEMPO 4000 BR BKN004
21:50
I
6 °C 10 km+ 600 ft 020° 020° 5 kt METAR EDDL 302050Z AUTO 02005KT 9999 BKN006 BKN011 06/05 Q1026 TEMPO SCT006
21:20
I
6 °C 9 km 600 ft 010° 010° 4 kt METAR EDDL 302020Z AUTO 01004KT 9000 BKN006 06/05 Q1025 TEMPO 4000 BR BKN004
20:50
I
6 °C 10 km+ 900 ft 010° 010° 5 kt METAR EDDL 301950Z AUTO 01005KT 9999 OVC009 06/05 Q1025 TEMPO 4000 -DZ
20:20
I
6 °C 10 km+ 800 ft 010° 010° 4 kt METAR EDDL 301920Z AUTO 01004KT 9999 BKN008 OVC012 06/05 Q1025 NOSIG
19:50
I
6 °C 9 km 600 ft 010° 010° 6 kt METAR EDDL 301850Z AUTO 01006KT 9000 OVC006 06/05 Q1025 TEMPO 3500 -DZ
19:20
I
6 °C 8 km 600 ft 360° 360° 4 kt METAR EDDL 301820Z AUTO 36004KT 8000 OVC006 06/05 Q1025 TEMPO 3500 -DZ BKN004
18:50
I
6 °C 9 km 600 ft 350° 350° 5 kt METAR EDDL 301750Z AUTO 35005KT 9000 OVC006 06/05 Q1025 TEMPO 3500 -DZ
18:20
I
6 °C 10 km+ 800 ft 360° 360° 5 kt METAR EDDL 301720Z AUTO 36005KT 9999 OVC008 06/05 Q1025 TEMPO 3500 -DZ
17:50
I
7 °C 10 km+ 900 ft 010° 010° 5 kt METAR EDDL 301650Z AUTO 01005KT 9999 BKN009 BKN012 OVC016 07/05 Q1024 TEMPO 3500 -DZ BKN005
17:20
M
6 °C 10 km+ 1.200 ft 360° 360° 5 kt METAR EDDL 301620Z AUTO 36005KT 9999 BKN012 BKN023 06/05 Q1024 TEMPO 4000 -DZ BKN007
16:50
M
6 °C 9 km 1.900 ft 360° 360° 4 kt METAR EDDL 301550Z AUTO 36004KT 9000 FEW011 BKN019 OVC045 06/05 Q1024 TEMPO 4000 BR BKN008
16:20
I
7 °C 7 km 900 ft 010° 010° 5 kt METAR EDDL 301520Z AUTO 01005KT 7000 -DZ BKN009 BKN013 07/06 Q1024 TEMPO BKN012
15:50
M
7 °C 9 km 1.300 ft 010° 010° 5 kt METAR EDDL 301450Z AUTO 01005KT 9000 SCT009 BKN013 07/05 Q1024 TEMPO BKN008
15:20
M
7 °C 8 km 1.100 ft 360° 360° 4 kt METAR EDDL 301420Z AUTO 36004KT 8000 SCT007 OVC011 07/05 Q1024 TEMPO BKN007 OVC012
14:50
I
7 °C 6 km 700 ft 030° 030° 4 kt METAR EDDL 301350Z AUTO 03004KT 6000 BKN007 BKN010 07/06 Q1024 TEMPO 4500 BR SCT007 BKN010
14:20
M
7 °C 7 km 2.900 ft 030° 030° 4 kt METAR EDDL 301320Z AUTO 03004KT 320V060 7000 FEW008 OVC029 07/06 Q1024 TEMPO 4500 BR BKN008
13:50
M
7 °C 7 km 1.800 ft 330° 330° 5 kt METAR EDDL 301250Z AUTO 33005KT 7000 FEW007 BKN018 OVC026 07/05 Q1023 TEMPO 4500 BR BKN007 OVC015
13:20
I
7 °C 8 km 900 ft 360° 360° 4 kt METAR EDDL 301220Z AUTO 36004KT 320V030 8000 BKN009 OVC023 07/05 Q1024 TEMPO BKN010
12:50
I
7 °C 8 km 700 ft 360° 360° 4 kt METAR EDDL 301150Z AUTO 36004KT 320V020 8000 BKN007 BKN011 OVC021 07/05 Q1023 BECMG SCT007
12:20
I
6 °C 6 km 800 ft 360° 360° 3 kt METAR EDDL 301120Z AUTO 36003KT 6000 BKN008 BKN012 OVC025 06/05 Q1023 BECMG SCT008
11:50
I
6 °C 5 km 700 ft 350° 350° 4 kt METAR EDDL 301050Z AUTO 35004KT 5000 BR BKN007 OVC011 06/06 Q1023 BECMG SCT006
11:20
I
6 °C 4,7 km 600 ft 340° 340° 4 kt METAR EDDL 301020Z AUTO 34004KT 4700 BR BKN006 06/05 Q1024 TEMPO 2500 BR
10:50
I
6 °C 5 km 600 ft 330° 330° 5 kt METAR EDDL 300950Z AUTO 33005KT 5000 BR BKN006 BKN024 06/05 Q1024 TEMPO 3000 BR
10:20
I
6 °C 4,4 km 500 ft 320° 320° 6 kt METAR EDDL 300920Z AUTO 32006KT 4400 BR BKN005 BKN012 BKN025 06/05 Q1024 TEMPO 1200 BR
09:50
M
6 °C 5 km 2.400 ft 310° 310° 5 kt METAR EDDL 300850Z AUTO 31005KT 5000 BR FEW005 SCT009 OVC024 06/05 Q1023 TEMPO 3000 BR BKN010
09:20
M
6 °C 5 km 2.300 ft 310° 310° 3 kt METAR EDDL 300820Z AUTO 31003KT 5000 BR FEW006 OVC023 06/05 Q1023 TEMPO 3000 BR BKN010
08:50
M
6 °C 6 km 2.400 ft Var Var 1 kt METAR EDDL 300750Z AUTO VRB01KT 6000 OVC024 06/05 Q1023 TEMPO 3000 BR BKN010
08:20
M
6 °C 5 km 2.400 ft 320° 320° 2 kt METAR EDDL 300720Z AUTO 32002KT 5000 BR OVC024 06/05 Q1023 TEMPO 3000 BR BKN010
07:50
M
6 °C 8 km 2.300 ft 310° 310° 3 kt METAR EDDL 300650Z AUTO 31003KT 8000 BKN023 06/05 Q1022 TEMPO 3000 BR BKN010
07:20
M
6 °C 9 km 1.900 ft 330° 330° 3 kt METAR EDDL 300620Z AUTO 33003KT 9000 BKN019 06/05 Q1022 TEMPO 1400 BR BKN010
06:50
M
6 °C 9 km 1.800 ft 010° 010° 3 kt METAR EDDL 300550Z AUTO 01003KT 9000 OVC018 06/05 Q1022 TEMPO 1400 BR BKN010
06:20
M
6 °C 9 km 1.400 ft 020° 020° 7 kt METAR EDDL 300520Z AUTO 02007KT 9000 OVC014 06/05 Q1022 TEMPO 4000 BCFG BKN005
05:50
M
6 °C 6 km - 360° 360° 6 kt METAR EDDL 300450Z AUTO 36006KT 6000 FEW005 06/05 Q1022 TEMPO 3000 BCFG BKN005
05:20
L
6 °C 3,8 km 300 ft 010° 010° 5 kt METAR EDDL 300420Z AUTO 01005KT 3800 BR BKN003 06/06 Q1022 TEMPO 5000 BKN008
04:50
L
7 °C 2,4 km 200 ft 330° 330° 7 kt METAR EDDL 300350Z AUTO 33007KT 2400 BR OVC002 07/07 Q1022 TEMPO 1400
04:20
L
7 °C 3,8 km 300 ft 320° 320° 6 kt METAR EDDL 300320Z AUTO 32006KT 3800 BR BKN003 OVC011 07/06 Q1022 TEMPO 1500
03:50
I
7 °C 4,5 km 700 ft 320° 320° 4 kt METAR EDDL 300250Z AUTO 32004KT 4500 BR SCT003 BKN007 07/07 Q1022 TEMPO 2500 BKN003
03:20
L
7 °C 600 m 300 ft 270° 270° 3 kt METAR EDDL 300220Z AUTO 27003KT 240V300 0650 0600 R23R/1000N R23L/0900U FG VV003 07/07 Q1022 TEMPO BKN001
02:50
L
7 °C 600 m 300 ft 260° 260° 4 kt METAR EDDL 300150Z AUTO 26004KT 0600 R23R/0800N R23L/0700N FG VV003 07/07 Q1022 TEMPO BKN001
02:20
L
7 °C 750 m 100 ft 260° 260° 4 kt METAR EDDL 300120Z AUTO 26004KT 0900 0750 R23R/1100D R23L/1100D FG OVC001 07/06 Q1022 NOSIG
01:50
L
7 °C 800 m 100 ft 250° 250° 3 kt METAR EDDL 300050Z AUTO 25003KT 0900 0800 R23R/1100N R23L/1000N FG OVC001 07/06 Q1022 NOSIG
01:20
L
7 °C 1,9 km 200 ft 270° 270° 4 kt METAR EDDL 300020Z AUTO 27004KT 240V300 1900 BR OVC002 07/07 Q1022 NOSIG
00:50
L
7 °C 1,9 km 200 ft 280° 280° 5 kt METAR EDDL 292350Z AUTO 28005KT 250V310 1900 BR OVC002 07/07 Q1022 TEMPO 1200 BKN001
00:20
L
7 °C 2,4 km 200 ft 270° 270° 4 kt METAR EDDL 292320Z AUTO 27004KT 2400 BR OVC002 07/06 Q1021 TEMPO 1200

29. November 2022

Uhrzeit Code Wetter Temp. Sichtweite Wolkendecke Wind METAR/SPECI
23:50
L
7 °C 3,1 km 300 ft 260° 260° 3 kt METAR EDDL 292250Z AUTO 26003KT 230V300 3100 BR OVC003 07/06 Q1021 BECMG 2000
23:20
L
7 °C 4,1 km 300 ft 270° 270° 3 kt METAR EDDL 292220Z AUTO 27003KT 4100 BR OVC003 07/06 Q1021 NOSIG
22:50
L
6 °C 4,4 km 300 ft 260° 260° 3 kt METAR EDDL 292150Z AUTO 26003KT 4400 BR BKN003 OVC010 06/06 Q1021 REDZ TEMPO 2500
22:20
I
6 °C 3,9 km 1.300 ft Var Var 2 kt METAR EDDL 292120Z AUTO VRB02KT 3900 BR SCT003 OVC013 06/06 Q1021 REDZ TEMPO 1400 BKN003
21:50
L
6 °C 2,9 km 200 ft 260° 260° 3 kt METAR EDDL 292050Z AUTO 26003KT 2900 DZ BR BKN002 BKN008 OVC015 06/06 Q1021 TEMPO 1400
21:20
L
6 °C 4,2 km 300 ft Var Var 1 kt METAR EDDL 292020Z AUTO VRB01KT 4200 BR BKN003 OVC018 06/06 Q1021 TEMPO 1200 BCFG
20:50
I
5 °C 4,2 km 2.000 ft Var Var 1 kt METAR EDDL 291950Z AUTO VRB01KT 4200 BR FEW003 OVC020 OVC032 05/05 Q1021 TEMPO 1200 BCFG BKN001
20:20
L
5 °C 600 m 2.400 ft 240° 240° 3 kt METAR EDDL 291920Z AUTO 24003KT 1600 0600 R23R/0800U R23L/1900N BCFG BKN024 BKN036 05/05 Q1021 TEMPO 0600 BCFG BKN000
19:50
L
5 °C 600 m 4.000 ft 230° 230° 4 kt METAR EDDL 291850Z AUTO 23004KT 2300 0600 R23R/0700N R23L/P2000N BCFG BKN040 05/05 Q1021 TEMPO 0700 BCFG BKN000
19:20
L
5 °C 550 m - 230° 230° 3 kt METAR EDDL 291820Z AUTO 23003KT 1500 0550 R23R/0600D R23L/P2000N BCFG FEW023 05/04 Q1020 TEMPO 0700 BCFG BKN001
18:50
I
6 °C 2,1 km - 250° 250° 2 kt METAR EDDL 291750Z AUTO 25002KT 6000 2100 BR SCT024 06/05 Q1020 TEMPO 3000 BR BKN008
18:20
M
7 °C 7 km 2.200 ft 250° 250° 3 kt METAR EDDL 291720Z AUTO 25003KT 7000 FEW005 OVC022 07/07 Q1020 TEMPO 4000 BR BKN008
17:50
M
8 °C 7 km 2.200 ft 290° 290° 2 kt METAR EDDL 291650Z AUTO 29002KT 7000 FEW001 OVC022 08/07 Q1020 TEMPO 4000 BKN008
17:20
M
8 °C 7 km 1.200 ft 290° 290° 3 kt METAR EDDL 291620Z AUTO 29003KT 7000 BKN012 OVC017 08/07 Q1020 TEMPO 4000 BR BKN006
16:50
M
8 °C 8 km 1.300 ft 300° 300° 5 kt METAR EDDL 291550Z AUTO 30005KT 8000 SCT009 BKN013 OVC017 08/07 Q1020 TEMPO 4000 BKN004
16:20
L
8 °C 5 km 400 ft 330° 330° 6 kt METAR EDDL 291520Z AUTO 33006KT 5000 BR BKN004 BKN008 OVC013 08/07 Q1020 REDZ TEMPO 4500 SCT003 OVC008
15:50
L
8 °C 2,8 km 300 ft 310° 310° 6 kt METAR EDDL 291450Z AUTO 31006KT 2800 BR BKN003 08/08 Q1020 TEMPO 3500 SCT004 OVC006
15:20
I
8 °C 5 km 500 ft 320° 320° 4 kt METAR EDDL 291420Z AUTO 32004KT 5000 BR BKN005 08/07 Q1019
14:50
I
8 °C 5 km 600 ft 320° 320° 4 kt METAR EDDL 291350Z AUTO 32004KT 5000 BR OVC006 08/08 Q1019 NOSIG
14:20
I
9 °C 4,8 km 700 ft 300° 300° 4 kt METAR EDDL 291320Z AUTO 30004KT 260V340 4800 BR OVC007 09/08 Q1019 NOSIG
13:50
I
9 °C 5 km 700 ft 310° 310° 3 kt METAR EDDL 291250Z AUTO 31003KT 250V360 5000 BR OVC007 09/07 Q1019 NOSIG
13:20
I
9 °C 5 km 600 ft 300° 300° 3 kt METAR EDDL 291220Z AUTO 30003KT 250V330 5000 BR BKN006 OVC010 09/08 Q1019
12:50
I
8 °C 3,5 km 500 ft 280° 280° 4 kt METAR EDDL 291150Z AUTO 28004KT 240V300 3500 BR BKN005 08/08 Q1018 TEMPO BKN004
12:20
L
8 °C 3,3 km 400 ft 280° 280° 4 kt METAR EDDL 291120Z AUTO 28004KT 3300 BR OVC004 08/08 Q1018 TEMPO BKN005
11:50
L
8 °C 3,3 km 400 ft 280° 280° 3 kt METAR EDDL 291050Z AUTO 28003KT 240V320 3300 BR OVC004 08/08 Q1018 BECMG BKN005
11:20
L
8 °C 2,1 km 300 ft 280° 280° 3 kt METAR EDDL 291020Z AUTO 28003KT 250V320 2100 BR BKN003 OVC007 08/08 Q1018 BECMG BKN005
10:50
L
8 °C 2,3 km 300 ft Var Var 2 kt METAR EDDL 290950Z AUTO VRB02KT 2300 -DZ BR BKN003 BKN006 08/07 Q1018 TEMPO 3500

Wir und Dritte verfolgen dein Internetverhalten auf unserer Website mit Cookies. Wenn du fortfährst, gehen wir davon aus, dass du mit unserer Cookie-Richtlinie einverstanden bist.